sensor_id;sensor_type;location;lat;lon;timestamp;pressure;altitude;pressure_sealevel;temperature;humidity
70902;BME280;58548;47.210;8.618;2023-05-10T00:00:29;93772.66;;;21.91;41.24
70902;BME280;58548;47.210;8.618;2023-05-10T00:02:57;93759.41;;;21.80;41.07
70902;BME280;58548;47.210;8.618;2023-05-10T00:05:23;93722.72;;;21.57;41.17
70902;BME280;58548;47.210;8.618;2023-05-10T00:07:51;93674.38;;;21.23;40.91
70902;BME280;58548;47.210;8.618;2023-05-10T00:10:17;93773.22;;;21.77;41.13
70902;BME280;58548;47.210;8.618;2023-05-10T00:12:43;93787.06;;;21.79;40.98
70902;BME280;58548;47.210;8.618;2023-05-10T00:15:16;93682.38;;;21.13;41.19
70902;BME280;58548;47.210;8.618;2023-05-10T00:17:41;93754.09;;;21.65;40.77
70902;BME280;58548;47.210;8.618;2023-05-10T00:20:12;93680.78;;;21.17;40.87
70902;BME280;58548;47.210;8.618;2023-05-10T00:22:38;93699.88;;;21.19;41.03
70902;BME280;58548;47.210;8.618;2023-05-10T00:25:05;93711.03;;;21.27;41.37
70902;BME280;58548;47.210;8.618;2023-05-10T00:27:31;93686.59;;;20.99;41.83
70902;BME280;58548;47.210;8.618;2023-05-10T00:29:57;93762.31;;;21.48;41.47
70902;BME280;58548;47.210;8.618;2023-05-10T00:32:23;93789.69;;;21.53;41.96
70902;BME280;58548;47.210;8.618;2023-05-10T00:34:49;93673.28;;;20.68;42.41
70902;BME280;58548;47.210;8.618;2023-05-10T00:37:17;93683.13;;;20.77;42.26
70902;BME280;58548;47.210;8.618;2023-05-10T00:39:43;93772.13;;;21.42;42.26
70902;BME280;58548;47.210;8.618;2023-05-10T00:42:11;93678.53;;;20.57;42.65
70902;BME280;58548;47.210;8.618;2023-05-10T00:44:39;93662.09;;;20.55;42.76
70902;BME280;58548;47.210;8.618;2023-05-10T00:47:08;93773.69;;;21.22;42.81
70902;BME280;58548;47.210;8.618;2023-05-10T00:49:36;93680.16;;;20.53;42.29
70902;BME280;58548;47.210;8.618;2023-05-10T00:52:02;93651.44;;;20.34;42.24
70902;BME280;58548;47.210;8.618;2023-05-10T00:54:30;93679.34;;;20.58;42.24
70902;BME280;58548;47.210;8.618;2023-05-10T00:57:02;93790.72;;;21.27;42.16
70902;BME280;58548;47.210;8.618;2023-05-10T00:59:29;93682.00;;;20.58;42.27
70902;BME280;58548;47.210;8.618;2023-05-10T01:01:55;93688.63;;;20.60;41.96
70902;BME280;58548;47.210;8.618;2023-05-10T01:04:25;93690.75;;;20.58;42.09
70902;BME280;58548;47.210;8.618;2023-05-10T01:06:54;93786.22;;;21.27;42.39
70902;BME280;58548;47.210;8.618;2023-05-10T01:09:23;93739.66;;;20.83;42.01
70902;BME280;58548;47.210;8.618;2023-05-10T01:11:52;93790.19;;;21.30;42.40
70902;BME280;58548;47.210;8.618;2023-05-10T01:14:21;93689.69;;;20.59;42.31
70902;BME280;58548;47.210;8.618;2023-05-10T01:16:49;93684.41;;;20.54;42.15
70902;BME280;58548;47.210;8.618;2023-05-10T01:19:22;93695.53;;;20.61;42.13
70902;BME280;58548;47.210;8.618;2023-05-10T01:36:08;93750.06;;;21.11;41.78
70902;BME280;58548;47.210;8.618;2023-05-10T01:46:40;93679.63;;;20.61;41.50
70902;BME280;58548;47.210;8.618;2023-05-10T01:49:19;93788.63;;;21.39;41.83
70902;BME280;58548;47.210;8.618;2023-05-10T01:51:53;93661.06;;;20.67;41.44
70902;BME280;58548;47.210;8.618;2023-05-10T01:54:22;93771.59;;;21.35;41.69
70902;BME280;58548;47.210;8.618;2023-05-10T01:57:05;93801.38;;;21.58;41.43
70902;BME280;58548;47.210;8.618;2023-05-10T01:59:38;93789.69;;;21.53;41.38
70902;BME280;58548;47.210;8.618;2023-05-10T02:02:08;93798.19;;;21.56;41.17
70902;BME280;58548;47.210;8.618;2023-05-10T02:04:39;93714.75;;;21.05;41.44
70902;BME280;58548;47.210;8.618;2023-05-10T02:07:10;93777.97;;;21.49;41.47
70902;BME280;58548;47.210;8.618;2023-05-10T02:09:37;93786.22;;;21.58;41.55
70902;BME280;58548;47.210;8.618;2023-05-10T02:12:06;93791.28;;;21.70;41.34
70902;BME280;58548;47.210;8.618;2023-05-10T02:14:36;93799.28;;;21.80;41.24
70902;BME280;58548;47.210;8.618;2023-05-10T02:17:08;93709.97;;;21.22;40.92
70902;BME280;58548;47.210;8.618;2023-05-10T02:19:41;93710.50;;;21.24;41.28
70902;BME280;58548;47.210;8.618;2023-05-10T02:22:09;93785.97;;;21.75;41.40
70902;BME280;58548;47.210;8.618;2023-05-10T02:24:39;93694.56;;;21.09;41.34
70902;BME280;58548;47.210;8.618;2023-05-10T02:27:10;93700.16;;;21.13;41.10
70902;BME280;58548;47.210;8.618;2023-05-10T02:29:38;93798.47;;;21.75;41.18
70902;BME280;58548;47.210;8.618;2023-05-10T02:32:05;93686.06;;;21.02;40.94
70902;BME280;58548;47.210;8.618;2023-05-10T02:34:35;93724.84;;;21.29;41.05
70902;BME280;58548;47.210;8.618;2023-05-10T02:37:02;93675.19;;;20.93;40.74
70902;BME280;58548;47.210;8.618;2023-05-10T02:39:31;93683.13;;;20.88;40.81
70902;BME280;58548;47.210;8.618;2023-05-10T02:42:01;93783.56;;;21.43;41.42
70902;BME280;58548;47.210;8.618;2023-05-10T02:44:29;93700.38;;;20.80;41.32
70902;BME280;58548;47.210;8.618;2023-05-10T02:46:57;93799.75;;;21.41;41.40
70902;BME280;58548;47.210;8.618;2023-05-10T02:49:25;93799.50;;;21.43;41.36
70902;BME280;58548;47.210;8.618;2023-05-10T02:51:56;93778.50;;;21.31;41.36
70902;BME280;58548;47.210;8.618;2023-05-10T02:54:31;93791.25;;;21.44;41.03
70902;BME280;58548;47.210;8.618;2023-05-10T02:57:04;93762.53;;;21.20;41.08
70902;BME280;58548;47.210;8.618;2023-05-10T02:59:33;93786.22;;;21.37;41.12
70902;BME280;58548;47.210;8.618;2023-05-10T03:02:03;93777.41;;;21.21;41.38
70902;BME280;58548;47.210;8.618;2023-05-10T03:04:36;93768.38;;;21.22;41.27
70902;BME280;58548;47.210;8.618;2023-05-10T03:07:05;93800.81;;;21.40;41.18
70902;BME280;58548;47.210;8.618;2023-05-10T03:09:33;93784.34;;;21.33;41.41
70902;BME280;58548;47.210;8.618;2023-05-10T03:20:08;93696.06;;;20.63;41.51
70902;BME280;58548;47.210;8.618;2023-05-10T03:22:45;93807.97;;;21.34;41.66
70902;BME280;58548;47.210;8.618;2023-05-10T03:25:19;93797.63;;;21.28;41.44
70902;BME280;58548;47.210;8.618;2023-05-10T03:27:50;93697.69;;;20.70;41.24
70902;BME280;58548;47.210;8.618;2023-05-10T03:30:18;93723.22;;;20.86;41.30
70902;BME280;58548;47.210;8.618;2023-05-10T03:32:45;93741.81;;;20.97;41.29
70902;BME280;58548;47.210;8.618;2023-05-10T03:35:13;93669.00;;;20.51;41.63
70902;BME280;58548;47.210;8.618;2023-05-10T03:37:39;93717.38;;;20.89;41.37
70902;BME280;58548;47.210;8.618;2023-05-10T03:40:08;93768.91;;;21.19;41.35
70902;BME280;58548;47.210;8.618;2023-05-10T03:42:34;93795.50;;;21.40;40.99
70902;BME280;58548;47.210;8.618;2023-05-10T03:45:02;93802.97;;;21.38;41.05
70902;BME280;58548;47.210;8.618;2023-05-10T03:47:28;93785.38;;;21.21;41.53
70902;BME280;58548;47.210;8.618;2023-05-10T03:49:55;93707.75;;;20.68;41.44
70902;BME280;58548;47.210;8.618;2023-05-10T03:52:23;93702.44;;;20.62;41.56
70902;BME280;58548;47.210;8.618;2023-05-10T03:54:51;93808.25;;;21.28;41.74
70902;BME280;58548;47.210;8.618;2023-05-10T03:57:17;93784.03;;;21.14;41.61
70902;BME280;58548;47.210;8.618;2023-05-10T03:59:45;93777.41;;;21.11;41.28
70902;BME280;58548;47.210;8.618;2023-05-10T04:02:15;93781.38;;;21.14;41.14
70902;BME280;58548;47.210;8.618;2023-05-10T04:04:41;93706.13;;;20.61;41.22
70902;BME280;58548;47.210;8.618;2023-05-10T04:07:10;93810.91;;;21.28;41.45
70902;BME280;58548;47.210;8.618;2023-05-10T04:09:38;93796.81;;;21.17;41.61
70902;BME280;58548;47.210;8.618;2023-05-10T04:12:04;93815.66;;;21.26;41.57
70902;BME280;58548;47.210;8.618;2023-05-10T04:14:35;93811.16;;;21.26;41.71
70902;BME280;58548;47.210;8.618;2023-05-10T04:17:01;93715.97;;;20.61;41.34
70902;BME280;58548;47.210;8.618;2023-05-10T04:19:30;93815.66;;;21.26;41.89
70902;BME280;58548;47.210;8.618;2023-05-10T04:22:02;93692.31;;;20.44;41.80
70902;BME280;58548;47.210;8.618;2023-05-10T04:24:28;93822.84;;;21.30;42.00
70902;BME280;58548;47.210;8.618;2023-05-10T04:26:55;93739.66;;;20.83;42.21
70902;BME280;58548;47.210;8.618;2023-05-10T04:29:23;93818.06;;;21.37;41.49
70902;BME280;58548;47.210;8.618;2023-05-10T04:31:49;93736.75;;;20.85;42.29
70902;BME280;58548;47.210;8.618;2023-05-10T04:34:20;93737.56;;;20.90;41.79
70902;BME280;58548;47.210;8.618;2023-05-10T04:36:50;93821.00;;;21.46;42.04
70902;BME280;58548;47.210;8.618;2023-05-10T04:39:18;93835.09;;;21.52;41.74
70902;BME280;58548;47.210;8.618;2023-05-10T04:41:46;93836.16;;;21.56;41.45
70902;BME280;58548;47.210;8.618;2023-05-10T04:44:12;93803.72;;;21.33;41.39
70902;BME280;58548;47.210;8.618;2023-05-10T04:46:40;93849.50;;;21.61;41.17
70902;BME280;58548;47.210;8.618;2023-05-10T04:49:06;93831.66;;;21.51;41.31
70902;BME280;58548;47.210;8.618;2023-05-10T04:51:34;93757.72;;;20.91;41.23
70902;BME280;58548;47.210;8.618;2023-05-10T04:54:00;93864.06;;;21.53;41.22
70902;BME280;58548;47.210;8.618;2023-05-10T04:56:29;93851.03;;;21.52;41.03
70902;BME280;58548;47.210;8.618;2023-05-10T04:58:57;93735.38;;;20.77;41.11
70902;BME280;58548;47.210;8.618;2023-05-10T05:01:25;93871.50;;;21.51;41.10
70902;BME280;58548;47.210;8.618;2023-05-10T05:03:53;93867.75;;;21.42;40.83
70902;BME280;58548;47.210;8.618;2023-05-10T05:06:22;93866.16;;;21.31;40.06
70902;BME280;58548;47.210;8.618;2023-05-10T05:08:52;93868.78;;;21.26;39.90
70902;BME280;58548;47.210;8.618;2023-05-10T05:11:18;93695.88;;;20.07;39.73
70902;BME280;58548;47.210;8.618;2023-05-10T05:13:47;93807.56;;;20.79;39.63
70902;BME280;58548;47.210;8.618;2023-05-10T05:16:13;93764.97;;;20.43;39.95
70902;BME280;58548;47.210;8.618;2023-05-10T05:18:41;93851.69;;;20.90;39.74
70902;BME280;58548;47.210;8.618;2023-05-10T05:21:17;93864.44;;;20.99;39.94
70902;BME280;58548;47.210;8.618;2023-05-10T05:23:46;93758.00;;;20.26;39.93
70902;BME280;58548;47.210;8.618;2023-05-10T05:26:12;93858.84;;;20.85;39.32
70902;BME280;58548;47.210;8.618;2023-05-10T05:28:41;93787.44;;;20.30;39.52
70902;BME280;58548;47.210;8.618;2023-05-10T05:31:12;93882.41;;;20.76;39.55
70902;BME280;58548;47.210;8.618;2023-05-10T05:33:44;93780.50;;;20.18;39.32
70902;BME280;58548;47.210;8.618;2023-05-10T05:36:12;93847.81;;;20.60;39.30
70902;BME280;58548;47.210;8.618;2023-05-10T05:38:40;93872.28;;;20.73;39.21
70902;BME280;58548;47.210;8.618;2023-05-10T05:41:06;93844.59;;;20.58;39.97
70902;BME280;58548;47.210;8.618;2023-05-10T05:43:34;93877.59;;;20.73;40.01
70902;BME280;58548;47.210;8.618;2023-05-10T05:46:00;93840.06;;;20.54;40.01
70902;BME280;58548;47.210;8.618;2023-05-10T05:48:32;93870.19;;;20.75;39.75
70902;BME280;58548;47.210;8.618;2023-05-10T05:50:58;93794.03;;;20.22;39.59
70902;BME280;58548;47.210;8.618;2023-05-10T05:53:24;93840.03;;;20.48;40.00
70902;BME280;58548;47.210;8.618;2023-05-10T05:55:55;93875.69;;;20.68;39.77
70902;BME280;58548;47.210;8.618;2023-05-10T05:58:24;93761.53;;;19.94;39.57
70902;BME280;58548;47.210;8.618;2023-05-10T06:00:52;93876.44;;;20.53;39.75
70902;BME280;58548;47.210;8.618;2023-05-10T06:03:18;93908.84;;;20.66;40.04
70902;BME280;58548;47.210;8.618;2023-05-10T06:05:44;93892.38;;;20.63;40.31
70902;BME280;58548;47.210;8.618;2023-05-10T06:08:12;93878.47;;;20.41;40.19
70902;BME280;58548;47.210;8.618;2023-05-10T06:10:38;93801.81;;;19.91;39.84
70902;BME280;58548;47.210;8.618;2023-05-10T06:13:04;93807.28;;;19.84;39.56
70902;BME280;58548;47.210;8.618;2023-05-10T06:15:32;93898.63;;;20.42;40.22
70902;BME280;58548;47.210;8.618;2023-05-10T06:18:01;93914.81;;;20.40;40.04
70902;BME280;58548;47.210;8.618;2023-05-10T06:20:27;93911.34;;;20.40;40.43
70902;BME280;58548;47.210;8.618;2023-05-10T06:22:55;93809.00;;;19.63;40.16
70902;BME280;58548;47.210;8.618;2023-05-10T06:25:23;93844.13;;;19.86;40.66
70902;BME280;58548;47.210;8.618;2023-05-10T06:27:49;93727.50;;;19.10;40.63
70902;BME280;58548;47.210;8.618;2023-05-10T06:30:17;93888.38;;;20.18;40.52
70902;BME280;58548;47.210;8.618;2023-05-10T06:32:45;93874.03;;;20.09;40.62
70902;BME280;58548;47.210;8.618;2023-05-10T06:35:11;93798.44;;;19.68;40.32
70902;BME280;58548;47.210;8.618;2023-05-10T06:37:37;93912.72;;;20.47;40.42
70902;BME280;58548;47.210;8.618;2023-05-10T06:40:05;93908.78;;;20.50;40.29
70902;BME280;58548;47.210;8.618;2023-05-10T06:42:31;93803.84;;;19.84;40.52
70902;BME280;58548;47.210;8.618;2023-05-10T06:45:00;93910.88;;;20.48;40.30
70902;BME280;58548;47.210;8.618;2023-05-10T06:47:25;93907.41;;;20.47;40.50
70902;BME280;58548;47.210;8.618;2023-05-10T06:49:53;93922.03;;;20.55;39.88
70902;BME280;58548;47.210;8.618;2023-05-10T06:52:24;93921.00;;;20.56;40.42
70902;BME280;58548;47.210;8.618;2023-05-10T06:54:50;93923.13;;;20.54;40.75
70902;BME280;58548;47.210;8.618;2023-05-10T06:57:18;93907.22;;;20.59;40.62
70902;BME280;58548;47.210;8.618;2023-05-10T06:59:45;93817.22;;;19.99;40.23
70902;BME280;58548;47.210;8.618;2023-05-10T07:02:10;93905.63;;;20.58;40.24
70902;BME280;58548;47.210;8.618;2023-05-10T07:04:36;93928.00;;;20.73;40.16
70902;BME280;58548;47.210;8.618;2023-05-10T07:07:05;93928.56;;;20.75;40.33
70902;BME280;58548;47.210;8.618;2023-05-10T07:09:34;93836.97;;;20.19;40.05
70902;BME280;58548;47.210;8.618;2023-05-10T07:11:59;93840.97;;;20.22;39.96
70902;BME280;58548;47.210;8.618;2023-05-10T07:14:27;93881.16;;;20.46;39.84
70902;BME280;58548;47.210;8.618;2023-05-10T07:16:53;93930.19;;;20.81;40.11
70902;BME280;58548;47.210;8.618;2023-05-10T07:19:19;93820.78;;;20.15;39.97
70902;BME280;58548;47.210;8.618;2023-05-10T07:21:45;93929.72;;;20.89;40.31
70902;BME280;58548;47.210;8.618;2023-05-10T07:24:13;93832.28;;;20.31;39.89
70902;BME280;58548;47.210;8.618;2023-05-10T07:26:39;93836.56;;;20.43;40.65
70902;BME280;58548;47.210;8.618;2023-05-10T07:29:10;93937.25;;;21.13;40.88
70902;BME280;58548;47.210;8.618;2023-05-10T07:31:36;93841.75;;;20.65;40.98
70902;BME280;58548;47.210;8.618;2023-05-10T07:34:02;93867.34;;;20.92;40.38
70902;BME280;58548;47.210;8.618;2023-05-10T07:36:32;93935.78;;;21.48;39.84
70902;BME280;58548;47.210;8.618;2023-05-10T07:38:58;93941.66;;;21.56;40.14
70902;BME280;58548;47.210;8.618;2023-05-10T07:41:24;93937.97;;;21.62;39.75
70902;BME280;58548;47.210;8.618;2023-05-10T07:43:52;93846.16;;;21.02;39.57
70902;BME280;58548;47.210;8.618;2023-05-10T07:46:18;93870.38;;;21.27;39.60
70902;BME280;58548;47.210;8.618;2023-05-10T07:48:45;93835.53;;;21.02;39.24
70902;BME280;58548;47.210;8.618;2023-05-10T07:51:11;93842.97;;;21.00;38.92
70902;BME280;58548;47.210;8.618;2023-05-10T07:53:38;93957.13;;;21.69;39.11
70902;BME280;58548;47.210;8.618;2023-05-10T07:58:56;93957.59;;;21.56;39.00
70902;BME280;58548;47.210;8.618;2023-05-10T08:01:22;93965.59;;;21.61;38.81
70902;BME280;58548;47.210;8.618;2023-05-10T08:03:49;93969.81;;;21.57;38.62
70902;BME280;58548;47.210;8.618;2023-05-10T08:06:20;93926.16;;;21.32;38.88
70902;BME280;58548;47.210;8.618;2023-05-10T08:08:49;93949.06;;;21.48;38.40
70902;BME280;58548;47.210;8.618;2023-05-10T08:11:20;93975.91;;;21.52;38.71
70902;BME280;58548;47.210;8.618;2023-05-10T08:13:48;93878.78;;;20.98;38.72
70902;BME280;58548;47.210;8.618;2023-05-10T08:16:15;93965.28;;;21.52;38.34
70902;BME280;58548;47.210;8.618;2023-05-10T08:18:41;93969.53;;;21.53;38.26
70902;BME280;58548;47.210;8.618;2023-05-10T08:21:09;93960.78;;;21.58;38.19
70902;BME280;58548;47.210;8.618;2023-05-10T08:23:39;93960.78;;;21.58;38.25
70902;BME280;58548;47.210;8.618;2023-05-10T08:26:09;93933.06;;;21.33;38.47
70902;BME280;58548;47.210;8.618;2023-05-10T08:28:35;93972.53;;;21.67;38.56
70902;BME280;58548;47.210;8.618;2023-05-10T08:31:00;93876.19;;;21.13;38.57
70902;BME280;58548;47.210;8.618;2023-05-10T08:33:26;93893.22;;;21.28;38.62
70902;BME280;58548;47.210;8.618;2023-05-10T08:35:55;93876.25;;;21.34;39.12
70902;BME280;58548;47.210;8.618;2023-05-10T08:38:21;93810.31;;;20.94;38.44
70902;BME280;58548;47.210;8.618;2023-05-10T08:40:49;93910.34;;;21.73;38.10
70902;BME280;58548;47.210;8.618;2023-05-10T08:43:21;93975.28;;;22.19;37.61
70902;BME280;58548;47.210;8.618;2023-05-10T08:45:53;93916.47;;;21.84;37.62
70902;BME280;58548;47.210;8.618;2023-05-10T08:48:23;93952.91;;;22.04;37.17
70902;BME280;58548;47.210;8.618;2023-05-10T08:50:53;93979.28;;;22.26;36.84
70902;BME280;58548;47.210;8.618;2023-05-10T08:53:24;93965.19;;;22.21;36.92
70902;BME280;58548;47.210;8.618;2023-05-10T08:55:52;93901.31;;;21.74;36.52
70902;BME280;58548;47.210;8.618;2023-05-10T08:58:23;93896.53;;;21.66;36.75
70902;BME280;58548;47.210;8.618;2023-05-10T09:00:52;93909.28;;;21.69;36.96
70902;BME280;58548;47.210;8.618;2023-05-10T09:03:21;93985.94;;;22.24;37.00
70902;BME280;58548;47.210;8.618;2023-05-10T09:05:52;93993.63;;;22.25;36.82
70902;BME280;58548;47.210;8.618;2023-05-10T09:08:20;93983.25;;;22.19;37.02
70902;BME280;58548;47.210;8.618;2023-05-10T09:10:48;93986.97;;;22.28;37.05
70902;BME280;58548;47.210;8.618;2023-05-10T09:13:14;93905.56;;;21.75;36.96
70902;BME280;58548;47.210;8.618;2023-05-10T09:15:47;93975.53;;;22.22;36.75
70902;BME280;58548;47.210;8.618;2023-05-10T09:18:18;93992.56;;;22.37;35.86
70902;BME280;58548;47.210;8.618;2023-05-10T09:20:44;93900.28;;;21.80;36.29
70902;BME280;58548;47.210;8.618;2023-05-10T09:23:12;93896.00;;;21.74;36.61
70902;BME280;58548;47.210;8.618;2023-05-10T09:25:42;93948.66;;;22.08;36.50
70902;BME280;58548;47.210;8.618;2023-05-10T09:28:08;93979.00;;;22.28;36.26
70902;BME280;58548;47.210;8.618;2023-05-10T09:30:35;93970.50;;;22.16;36.61
70902;BME280;58548;47.210;8.618;2023-05-10T09:33:03;93916.75;;;21.77;37.14
70902;BME280;58548;47.210;8.618;2023-05-10T09:35:33;93986.47;;;22.36;36.80
70902;BME280;58548;47.210;8.618;2023-05-10T09:38:03;93962.50;;;22.26;36.47
70902;BME280;58548;47.210;8.618;2023-05-10T09:40:32;93925.28;;;22.10;36.92
70902;BME280;58548;47.210;8.618;2023-05-10T09:43:07;93951.34;;;22.39;37.02
70902;BME280;58548;47.210;8.618;2023-05-10T09:45:34;93986.47;;;22.78;36.51
70902;BME280;58548;47.210;8.618;2023-05-10T09:48:03;93987.78;;;22.85;36.14
70902;BME280;58548;47.210;8.618;2023-05-10T09:50:29;93992.28;;;22.95;36.16
70902;BME280;58548;47.210;8.618;2023-05-10T09:53:01;93981.34;;;23.02;36.28
70902;BME280;58548;47.210;8.618;2023-05-10T09:55:38;93990.94;;;23.08;35.95
70902;BME280;58548;47.210;8.618;2023-05-10T09:58:08;93967.25;;;23.01;35.93
70902;BME280;58548;47.210;8.618;2023-05-10T10:00:40;93974.41;;;23.06;35.63
70902;BME280;58548;47.210;8.618;2023-05-10T10:03:15;93983.22;;;23.07;36.00
70902;BME280;58548;47.210;8.618;2023-05-10T10:05:44;93982.16;;;23.02;35.33
70902;BME280;58548;47.210;8.618;2023-05-10T10:08:11;93984.28;;;23.00;35.96
70902;BME280;58548;47.210;8.618;2023-05-10T10:10:42;93950.53;;;22.75;35.99
70902;BME280;58548;47.210;8.618;2023-05-10T10:13:10;93965.69;;;22.80;35.71
70902;BME280;58548;47.210;8.618;2023-05-10T10:15:36;93882.19;;;22.24;35.82
70902;BME280;58548;47.210;8.618;2023-05-10T10:18:05;93893.88;;;22.28;35.83
70902;BME280;58548;47.210;8.618;2023-05-10T10:20:37;93885.91;;;22.18;36.11
70902;BME280;58548;47.210;8.618;2023-05-10T10:23:07;93897.09;;;22.14;35.98
70902;BME280;58548;47.210;8.618;2023-05-10T10:25:34;93821.34;;;21.65;36.62
70902;BME280;58548;47.210;8.618;2023-05-10T10:28:30;93981.69;;;22.64;36.69
70902;BME280;58548;47.210;8.618;2023-05-10T10:31:13;93991.28;;;22.60;36.20
70902;BME280;58548;47.210;8.618;2023-05-10T10:34:03;93977.44;;;22.42;33.97
70902;BME280;58548;47.210;8.618;2023-05-10T10:36:30;93970.50;;;22.31;35.27
70902;BME280;58548;47.210;8.618;2023-05-10T10:39:00;93986.47;;;22.36;35.50
70902;BME280;58548;47.210;8.618;2023-05-10T10:41:35;93981.91;;;22.21;35.91
70902;BME280;58548;47.210;8.618;2023-05-10T10:49:27;93991.47;;;21.91;35.37
70902;BME280;58548;47.210;8.618;2023-05-10T10:57:43;93887.81;;;20.97;36.33
70902;BME280;58548;47.210;8.618;2023-05-10T11:02:56;93979.31;;;21.42;37.05
70902;BME280;58548;47.210;8.618;2023-05-10T11:05:33;93992.09;;;21.50;36.94
70902;BME280;58548;47.210;8.618;2023-05-10T11:08:17;93905.56;;;20.91;37.35
70902;BME280;58548;47.210;8.618;2023-05-10T11:11:01;93968.91;;;21.30;36.86
70902;BME280;58548;47.210;8.618;2023-05-10T11:13:37;93985.97;;;21.45;37.77
70902;BME280;58548;47.210;8.618;2023-05-10T11:16:23;93918.88;;;21.01;36.83
70902;BME280;58548;47.210;8.618;2023-05-10T11:21:18;93989.09;;;21.26;37.24
70902;BME280;58548;47.210;8.618;2023-05-10T11:23:50;93987.19;;;21.21;37.56
70902;BME280;58548;47.210;8.618;2023-05-10T11:26:18;93939.78;;;20.87;38.12
70902;BME280;58548;47.210;8.618;2023-05-10T11:28:51;93935.84;;;20.95;38.20
70902;BME280;58548;47.210;8.618;2023-05-10T11:31:19;93959.13;;;21.36;36.91
70902;BME280;58548;47.210;8.618;2023-05-10T11:33:56;93958.13;;;21.52;37.07
70902;BME280;58548;47.210;8.618;2023-05-10T11:36:32;93975.22;;;21.77;36.09
70902;BME280;58548;47.210;8.618;2023-05-10T11:39:04;93934.50;;;21.61;35.68
70902;BME280;58548;47.210;8.618;2023-05-10T11:41:35;93980.84;;;22.02;35.17
70902;BME280;58548;47.210;8.618;2023-05-10T11:44:03;93884.78;;;21.51;35.10
70902;BME280;58548;47.210;8.618;2023-05-10T11:46:32;93990.72;;;22.22;36.49
70902;BME280;58548;47.210;8.618;2023-05-10T11:49:00;93894.41;;;21.73;36.51
70902;BME280;58548;47.210;8.618;2023-05-10T11:51:36;93984.09;;;22.45;36.78
70902;BME280;58548;47.210;8.618;2023-05-10T11:54:10;93877.16;;;21.91;36.80
70902;BME280;58548;47.210;8.618;2023-05-10T11:56:38;93888.56;;;22.07;36.77
70902;BME280;58548;47.210;8.618;2023-05-10T11:59:07;93949.75;;;22.49;36.94
70902;BME280;58548;47.210;8.618;2023-05-10T12:01:34;93947.38;;;22.52;35.72
70902;BME280;58548;47.210;8.618;2023-05-10T12:04:01;93893.63;;;22.24;35.72
70902;BME280;58548;47.210;8.618;2023-05-10T12:06:35;93883.53;;;22.32;35.90
70902;BME280;58548;47.210;8.618;2023-05-10T12:09:06;93857.16;;;22.40;36.24
70902;BME280;58548;47.210;8.618;2023-05-10T12:11:39;93973.06;;;23.24;36.09
70902;BME280;58548;47.210;8.618;2023-05-10T12:14:06;93958.16;;;23.13;35.02
70902;BME280;58548;47.210;8.618;2023-05-10T12:16:37;93880.50;;;22.85;35.39
70902;BME280;58548;47.210;8.618;2023-05-10T12:19:05;93969.25;;;23.51;35.38
70902;BME280;58548;47.210;8.618;2023-05-10T12:21:32;93934.66;;;23.36;34.84
70902;BME280;58548;47.210;8.618;2023-05-10T12:24:03;93956.47;;;23.48;34.70
70902;BME280;58548;47.210;8.618;2023-05-10T12:26:35;93969.47;;;23.60;34.73
70902;BME280;58548;47.210;8.618;2023-05-10T12:29:13;93966.00;;;23.54;33.94
70902;BME280;58548;47.210;8.618;2023-05-10T12:32:01;93952.22;;;23.37;34.20
70902;BME280;58548;47.210;8.618;2023-05-10T12:34:33;93976.72;;;23.44;34.77
70902;BME280;58548;47.210;8.618;2023-05-10T12:37:02;93970.94;;;23.26;34.60
70902;BME280;58548;47.210;8.618;2023-05-10T12:39:44;93960.84;;;23.08;35.01
70902;BME280;58548;47.210;8.618;2023-05-10T12:42:12;93893.88;;;22.49;35.08
70902;BME280;58548;47.210;8.618;2023-05-10T12:44:39;93886.44;;;22.30;35.08
70902;BME280;58548;47.210;8.618;2023-05-10T12:47:05;93885.38;;;22.36;35.97
70902;BME280;58548;47.210;8.618;2023-05-10T12:49:35;93976.31;;;22.95;35.41
70902;BME280;58548;47.210;8.618;2023-05-10T12:52:06;93971.00;;;22.95;35.98
70902;BME280;58548;47.210;8.618;2023-05-10T12:54:35;93903.50;;;22.44;35.42
70902;BME280;58548;47.210;8.618;2023-05-10T12:57:01;93886.44;;;22.25;35.38
70902;BME280;58548;47.210;8.618;2023-05-10T12:59:29;93948.94;;;22.64;35.31
70902;BME280;58548;47.210;8.618;2023-05-10T13:01:57;93907.72;;;22.30;35.76
70902;BME280;58548;47.210;8.618;2023-05-10T13:04:25;93893.38;;;22.16;35.74
70902;BME280;58548;47.210;8.618;2023-05-10T13:06:55;93907.97;;;22.18;35.70
70902;BME280;58548;47.210;8.618;2023-05-10T13:09:27;93999.78;;;22.72;35.94
70902;BME280;58548;47.210;8.618;2023-05-10T13:11:58;93992.88;;;22.61;36.09
70902;BME280;58548;47.210;8.618;2023-05-10T13:14:30;93986.47;;;22.47;35.92
70902;BME280;58548;47.210;8.618;2023-05-10T13:16:55;93984.31;;;22.33;35.87
70902;BME280;58548;47.210;8.618;2023-05-10T13:19:21;93867.25;;;21.56;35.13
70902;BME280;58548;47.210;8.618;2023-05-10T13:21:50;93924.72;;;22.03;35.51
70902;BME280;58548;47.210;8.618;2023-05-10T13:24:18;93875.81;;;21.99;35.27
70902;BME280;58548;47.210;8.618;2023-05-10T13:26:44;93910.66;;;22.49;36.05
70902;BME280;58548;47.210;8.618;2023-05-10T13:29:10;93970.97;;;23.06;34.58
70902;BME280;58548;47.210;8.618;2023-05-10T13:31:38;93900.50;;;22.77;35.46
70902;BME280;58548;47.210;8.618;2023-05-10T13:34:04;93906.75;;;23.12;34.51
70902;BME280;58548;47.210;8.618;2023-05-10T13:36:30;93973.88;;;23.80;34.34
70902;BME280;58548;47.210;8.618;2023-05-10T13:38:57;93968.84;;;23.73;34.02
70902;BME280;58548;47.210;8.618;2023-05-10T13:41:25;93966.38;;;23.92;33.75
70902;BME280;58548;47.210;8.618;2023-05-10T13:43:51;93965.75;;;24.06;32.78
70902;BME280;58548;47.210;8.618;2023-05-10T13:46:19;93970.81;;;24.07;32.00
70902;BME280;58548;47.210;8.618;2023-05-10T13:48:45;93969.00;;;23.98;32.68
70902;BME280;58548;47.210;8.618;2023-05-10T13:51:11;93977.72;;;24.14;33.31
70902;BME280;58548;47.210;8.618;2023-05-10T13:53:38;93995.00;;;24.21;33.38
70902;BME280;58548;47.210;8.618;2023-05-10T13:56:04;93899.44;;;23.44;33.32
70902;BME280;58548;47.210;8.618;2023-05-10T13:58:32;93978.50;;;23.64;31.05